• Join FlightAware (Why Join?)
  • Login
  • US Flag 
12:27PM EST


 

Airport Tracker/Info


-or-


 

Live Flight TrackerFlight Track Log ✈ SWA771 ✈ 01-Sep-2013 ✈ KSMF - KLAS

Flight Track Log - Related Links

Times and Time Zones

All times are in EDT time to prevent confusion due to time zone crossing. See the SWA771 flight status page for this flight to view local times or setup timezone preferences in your user account.

Time Position Orientation Groundspeed Altitude Reporting Facility
EDT Latitude Longitude Course Direction KTS MPH feet Rate Location/Type
01:07PM 38.6667 -121.5833 142° Southeast 173 199 1,800  Level Northern Cal TRACON
01:08PM 38.6167 -121.5333 142° Southeast 221 254 4,600 3,000 Climbing Northern Cal TRACON
01:09PM 38.5833 -121.4500 117° Southeast 266 306 7,900 3,480 Climbing Northern Cal TRACON
01:10PM 38.5833 -121.3500 90° East 313 360 11,300 3,000 Climbing Northern Cal TRACON
01:11PM 38.5667 -121.2967 112° Southeast 308 354 12,600 2,760 Climbing Oakland Center
01:12PM 38.5481 -121.1772 101° East 334 384 15,700 3,000 Climbing Oakland Center
01:13PM 38.5297 -121.0403 100° East 372 428 18,800 2,880 Climbing Oakland Center
01:14PM 38.5094 -120.9031 101° East 389 448 21,700 2,640 Climbing Oakland Center
01:15PM 38.4883 -120.7639 101° East 399 459 24,300 2,280 Climbing Oakland Center
01:16PM 38.4669 -120.6194 101° East 412 474 26,400 2,040 Climbing Oakland Center
01:17PM 38.4269 -120.4781 110° East 421 484 28,500 2,040 Climbing Oakland Center
01:18PM 38.3858 -120.3369 110° East 424 488 30,600 1,920 Climbing Oakland Center
01:19PM 38.3431 -120.1944 111° Southeast 429 494 32,500 1,140 Climbing Oakland Center
01:20PM 38.2936 -120.0222 110° East 431 496 33,000 240 Climbing Oakland Center
01:21PM 38.2500 -119.8803 111° Southeast 432 497 33,000  Level Oakland Center
01:22PM 38.2081 -119.7375 110° East 432 497 33,000  Level Oakland Center
01:23PM 38.1642 -119.5953 111° Southeast 431 496 33,000  Level Oakland Center
01:24PM 38.1192 -119.4525 112° Southeast 434 499 33,000  Level Oakland Center
01:25PM 38.0769 -119.3108 111° Southeast 432 497 33,000  Level Oakland Center
01:26PM 38.0339 -119.1694 111° Southeast 430 495 33,000  Level Oakland Center
01:27PM 37.9919 -119.0303 111° Southeast 431 496 33,000  Level Oakland Center
01:28PM 37.9475 -118.8886 112° Southeast 433 498 33,000  Level Oakland Center
01:29PM 37.8939 -118.7178 112° Southeast 436 502 33,000  Level Oakland Center
01:30PM 37.8494 -118.5772 112° Southeast 432 497 33,000  Level Oakland Center
01:31PM 37.8047 -118.4358 112° Southeast 433 498 33,000  Level Oakland Center
01:32PM 37.7594 -118.2936 112° Southeast 436 502 33,000  Level Oakland Center
01:33PM 37.7150 -118.1533 112° Southeast 433 498 33,000  Level Oakland Center
01:34PM 37.6700 -118.0122 112° Southeast 434 499 33,000  Level Oakland Center
01:35PM 37.6244 -117.8722 112° Southeast 435 501 33,000  Level Oakland Center
01:36PM 37.5794 -117.7336 112° Southeast 430 495 33,000  Level Oakland Center
01:37PM 37.5342 -117.5928 112° Southeast 434 499 33,000  Level Oakland Center
01:38PM 37.4794 -117.4267 113° Southeast 432 497 33,000  Level Oakland Center
01:39PM 37.4300 -117.2894 114° Southeast 434 499 33,000  Level Oakland Center
01:40PM 37.3350 -117.1975 142° Southeast 434 499 33,000  Level Oakland Center
01:41PM 37.2372 -117.1139 146° Southeast 427 491 33,000  Level Oakland Center
01:42PM 37.1986 -117.0814 146° Southeast 428 493 33,000  Level Los Angeles Center
01:43PM 37.0803 -116.9814 146° Southeast 428 493 33,000  Level Los Angeles Center
01:44PM 36.9808 -116.8989 146° Southeast 428 493 33,000  Level Los Angeles Center
01:45PM 36.8817 -116.8144 146° Southeast 431 496 33,000 -360 Level Los Angeles Center
01:46PM 36.7844 -116.7272 144° Southeast 431 496 32,300 -900 Descending Los Angeles Center
01:47PM 36.7047 -116.6106 130° Southeast 438 504 31,200 -1,800 Descending Los Angeles Center
01:48PM 36.6258 -116.4956 131° Southeast 438 504 28,600 -2,640 Descending Los Angeles Center
01:49PM 36.5339 -116.3653 131° Southeast 423 487 25,700 -2,580 Descending Los Angeles Center
01:50PM 36.4592 -116.2611 132° Southeast 413 475 23,300 -2,400 Descending Los Angeles Center
01:51PM 36.3797 -116.1508 132° Southeast 401 461 20,800 -2,400 Descending Los Angeles Center
01:52PM 36.3219 -116.0706 132° Southeast 387 445 19,000 -2,280 Descending Los Angeles Center
01:53PM 36.2486 -115.9661 131° Southeast 378 435 16,400 -1,380 Descending Los Angeles Center
01:54PM 36.1867 -115.8558 125° Southeast 345 397 16,000 -240 Descending Los Angeles Center
01:55PM 36.1553 -115.7594 112° Southeast 326 375 16,000 -480 Level Los Angeles Center
01:56PM 36.1247 -115.6656 112° Southeast 324 373 15,200 -1,320 Descending Los Angeles Center
01:57PM 36.0925 -115.5644 111° Southeast 319 367 13,500 -1,680 Descending Los Angeles Center
01:58PM 36.0589 -115.4583 111° Southeast 316 364 11,800 -1,260 Descending Los Angeles Center
01:59PM 36.0294 -115.3617 111° Southeast 295 339 11,000 -1,020 Descending Los Angeles Center
02:00PM 36.0222 -115.2578 95° East 269 310 9,700 -1,080 Descending Los Angeles Center
02:01PM 36.0142 -115.1619 96° East 265 305 8,700 -840 Descending Los Angeles Center
02:02PM 36.0106 -115.0756 93° East 223 257 8,000 -780 Descending Los Angeles Center
02:03PM 36.0067 -115.0078 94° East 209 241 7,200 -1,200 Descending Los Angeles Center
02:04PM 36.0278 -114.9661 58° Northeast 200 230 5,900 -1,440 Descending Los Angeles Center
02:05PM 36.0689 -114.9869 338° Northwest 168 193 4,500 -1,320 Descending Los Angeles Center
02:06PM 36.0719 -115.0031 283° West 180 207 4,000 -1,080 Descending Los Angeles Center
02:06PM 36.0733 -115.0467 272° West 154 177 3,300 -960 Descending Los Angeles Center
02:07PM 36.0736 -115.0972 270° West 145 167 2,500 -840 Descending Los Angeles Center
02:10PM 36.0667 -115.1500 270° West  Level FlightAware Approximate